sensor_id;sensor_type;location;lat;lon;timestamp;temperature;humidity
9519;DHT22;4797;50.220;8.782;2023-05-24T00:00:21;10.80;99.80
9519;DHT22;4797;50.220;8.782;2023-05-24T00:02:50;10.70;99.80
9519;DHT22;4797;50.220;8.782;2023-05-24T00:05:19;10.70;99.80
9519;DHT22;4797;50.220;8.782;2023-05-24T00:08:18;10.60;99.80
9519;DHT22;4797;50.220;8.782;2023-05-24T00:10:47;10.60;99.80
9519;DHT22;4797;50.220;8.782;2023-05-24T00:13:15;10.60;99.80
9519;DHT22;4797;50.220;8.782;2023-05-24T00:15:43;10.60;99.80
9519;DHT22;4797;50.220;8.782;2023-05-24T00:18:11;10.60;99.80
9519;DHT22;4797;50.220;8.782;2023-05-24T00:20:40;10.50;99.80
9519;DHT22;4797;50.220;8.782;2023-05-24T00:23:09;10.50;99.80
9519;DHT22;4797;50.220;8.782;2023-05-24T00:25:37;10.50;99.80
9519;DHT22;4797;50.220;8.782;2023-05-24T00:28:05;10.50;99.80
9519;DHT22;4797;50.220;8.782;2023-05-24T00:30:32;10.60;99.80
9519;DHT22;4797;50.220;8.782;2023-05-24T00:33:00;10.50;99.80
9519;DHT22;4797;50.220;8.782;2023-05-24T00:35:28;10.50;99.80
9519;DHT22;4797;50.220;8.782;2023-05-24T00:37:58;10.50;99.80
9519;DHT22;4797;50.220;8.782;2023-05-24T00:40:26;10.50;99.80
9519;DHT22;4797;50.220;8.782;2023-05-24T00:42:54;10.50;99.80
9519;DHT22;4797;50.220;8.782;2023-05-24T00:45:22;10.50;99.80
9519;DHT22;4797;50.220;8.782;2023-05-24T00:47:50;10.40;99.80
9519;DHT22;4797;50.220;8.782;2023-05-24T00:50:18;10.40;99.80
9519;DHT22;4797;50.220;8.782;2023-05-24T00:52:48;10.40;99.80
9519;DHT22;4797;50.220;8.782;2023-05-24T00:55:19;10.40;99.80
9519;DHT22;4797;50.220;8.782;2023-05-24T00:57:48;10.30;99.80
9519;DHT22;4797;50.220;8.782;2023-05-24T01:00:18;10.30;99.80
9519;DHT22;4797;50.220;8.782;2023-05-24T01:02:46;10.20;99.80
9519;DHT22;4797;50.220;8.782;2023-05-24T01:05:15;10.20;99.80
9519;DHT22;4797;50.220;8.782;2023-05-24T01:07:53;10.10;99.80
9519;DHT22;4797;50.220;8.782;2023-05-24T01:10:29;10.00;99.80
9519;DHT22;4797;50.220;8.782;2023-05-24T01:13:03;9.90;99.80
9519;DHT22;4797;50.220;8.782;2023-05-24T01:15:41;9.90;99.80
9519;DHT22;4797;50.220;8.782;2023-05-24T01:18:16;9.90;99.80
9519;DHT22;4797;50.220;8.782;2023-05-24T01:20:52;9.80;99.80
9519;DHT22;4797;50.220;8.782;2023-05-24T01:23:35;9.80;99.80
9519;DHT22;4797;50.220;8.782;2023-05-24T01:26:18;9.80;99.80
9519;DHT22;4797;50.220;8.782;2023-05-24T01:28:50;9.70;99.80
9519;DHT22;4797;50.220;8.782;2023-05-24T01:31:19;9.70;99.80
9519;DHT22;4797;50.220;8.782;2023-05-24T01:33:48;9.70;99.80
9519;DHT22;4797;50.220;8.782;2023-05-24T01:36:16;9.70;99.80
9519;DHT22;4797;50.220;8.782;2023-05-24T01:38:44;9.70;99.80
9519;DHT22;4797;50.220;8.782;2023-05-24T01:41:21;9.70;99.80
9519;DHT22;4797;50.220;8.782;2023-05-24T01:44:04;9.70;99.80
9519;DHT22;4797;50.220;8.782;2023-05-24T01:46:35;9.70;99.80
9519;DHT22;4797;50.220;8.782;2023-05-24T01:49:20;9.70;99.80
9519;DHT22;4797;50.220;8.782;2023-05-24T01:51:52;9.70;99.80
9519;DHT22;4797;50.220;8.782;2023-05-24T01:54:23;9.80;99.80
9519;DHT22;4797;50.220;8.782;2023-05-24T01:56:53;9.70;99.80
9519;DHT22;4797;50.220;8.782;2023-05-24T01:59:26;9.80;99.80
9519;DHT22;4797;50.220;8.782;2023-05-24T02:01:56;9.80;99.80
9519;DHT22;4797;50.220;8.782;2023-05-24T02:04:24;9.80;99.80
9519;DHT22;4797;50.220;8.782;2023-05-24T02:06:52;9.80;99.80
9519;DHT22;4797;50.220;8.782;2023-05-24T02:09:20;9.70;99.80
9519;DHT22;4797;50.220;8.782;2023-05-24T02:11:48;9.60;99.80
9519;DHT22;4797;50.220;8.782;2023-05-24T02:14:20;9.60;99.80
9519;DHT22;4797;50.220;8.782;2023-05-24T02:16:51;9.50;99.80
9519;DHT22;4797;50.220;8.782;2023-05-24T02:19:24;9.40;99.80
9519;DHT22;4797;50.220;8.782;2023-05-24T02:21:52;9.40;99.80
9519;DHT22;4797;50.220;8.782;2023-05-24T02:24:20;9.30;99.80
9519;DHT22;4797;50.220;8.782;2023-05-24T02:26:48;9.30;99.80
9519;DHT22;4797;50.220;8.782;2023-05-24T02:29:16;9.20;99.80
9519;DHT22;4797;50.220;8.782;2023-05-24T02:31:44;9.20;99.80
9519;DHT22;4797;50.220;8.782;2023-05-24T02:34:14;9.10;99.80
9519;DHT22;4797;50.220;8.782;2023-05-24T02:36:42;9.00;99.80
9519;DHT22;4797;50.220;8.782;2023-05-24T02:39:11;9.00;99.80
9519;DHT22;4797;50.220;8.782;2023-05-24T02:41:39;9.00;99.80
9519;DHT22;4797;50.220;8.782;2023-05-24T02:44:07;9.00;99.80
9519;DHT22;4797;50.220;8.782;2023-05-24T02:46:36;9.00;99.80
9519;DHT22;4797;50.220;8.782;2023-05-24T02:49:04;9.00;99.80
9519;DHT22;4797;50.220;8.782;2023-05-24T02:51:33;9.00;99.80
9519;DHT22;4797;50.220;8.782;2023-05-24T02:54:02;9.00;99.80
9519;DHT22;4797;50.220;8.782;2023-05-24T02:56:31;9.00;99.80
9519;DHT22;4797;50.220;8.782;2023-05-24T02:59:00;8.90;99.80
9519;DHT22;4797;50.220;8.782;2023-05-24T03:01:28;8.90;99.80
9519;DHT22;4797;50.220;8.782;2023-05-24T03:03:56;8.90;99.80
9519;DHT22;4797;50.220;8.782;2023-05-24T03:06:24;8.80;99.80
9519;DHT22;4797;50.220;8.782;2023-05-24T03:08:54;8.80;99.80
9519;DHT22;4797;50.220;8.782;2023-05-24T03:11:22;8.80;99.80
9519;DHT22;4797;50.220;8.782;2023-05-24T03:13:50;8.80;99.80
9519;DHT22;4797;50.220;8.782;2023-05-24T03:16:18;8.80;99.80
9519;DHT22;4797;50.220;8.782;2023-05-24T03:18:47;8.80;99.80
9519;DHT22;4797;50.220;8.782;2023-05-24T03:21:16;8.70;99.80
9519;DHT22;4797;50.220;8.782;2023-05-24T03:23:46;8.70;99.80
9519;DHT22;4797;50.220;8.782;2023-05-24T03:26:16;8.70;99.80
9519;DHT22;4797;50.220;8.782;2023-05-24T03:28:44;8.60;99.80
9519;DHT22;4797;50.220;8.782;2023-05-24T03:31:13;8.60;99.80
9519;DHT22;4797;50.220;8.782;2023-05-24T03:33:42;8.50;99.80
9519;DHT22;4797;50.220;8.782;2023-05-24T03:36:10;8.50;99.80
9519;DHT22;4797;50.220;8.782;2023-05-24T03:38:38;8.50;99.80
9519;DHT22;4797;50.220;8.782;2023-05-24T03:41:06;8.40;99.80
9519;DHT22;4797;50.220;8.782;2023-05-24T03:43:36;8.30;99.80
9519;DHT22;4797;50.220;8.782;2023-05-24T03:46:04;8.20;99.80
9519;DHT22;4797;50.220;8.782;2023-05-24T03:48:32;8.20;99.80
9519;DHT22;4797;50.220;8.782;2023-05-24T03:51:00;8.20;99.80
9519;DHT22;4797;50.220;8.782;2023-05-24T03:53:28;8.20;99.80
9519;DHT22;4797;50.220;8.782;2023-05-24T03:55:57;8.20;99.80
9519;DHT22;4797;50.220;8.782;2023-05-24T03:58:25;8.10;99.80
9519;DHT22;4797;50.220;8.782;2023-05-24T04:00:55;8.10;99.80
9519;DHT22;4797;50.220;8.782;2023-05-24T04:03:23;8.10;99.80
9519;DHT22;4797;50.220;8.782;2023-05-24T04:05:52;8.10;99.80
9519;DHT22;4797;50.220;8.782;2023-05-24T04:08:20;8.10;99.80
9519;DHT22;4797;50.220;8.782;2023-05-24T04:10:48;8.10;99.80
9519;DHT22;4797;50.220;8.782;2023-05-24T04:13:16;8.10;99.80
9519;DHT22;4797;50.220;8.782;2023-05-24T04:15:44;8.20;99.80
9519;DHT22;4797;50.220;8.782;2023-05-24T04:18:14;8.20;99.80
9519;DHT22;4797;50.220;8.782;2023-05-24T04:20:42;8.10;99.80
9519;DHT22;4797;50.220;8.782;2023-05-24T04:23:10;8.10;99.80
9519;DHT22;4797;50.220;8.782;2023-05-24T04:25:38;8.00;99.80
9519;DHT22;4797;50.220;8.782;2023-05-24T04:28:07;8.00;99.80
9519;DHT22;4797;50.220;8.782;2023-05-24T04:30:36;8.00;99.80
9519;DHT22;4797;50.220;8.782;2023-05-24T04:33:04;8.00;99.80
9519;DHT22;4797;50.220;8.782;2023-05-24T04:35:34;8.00;99.80
9519;DHT22;4797;50.220;8.782;2023-05-24T04:38:02;8.00;99.80
9519;DHT22;4797;50.220;8.782;2023-05-24T04:40:30;8.10;99.80
9519;DHT22;4797;50.220;8.782;2023-05-24T04:42:58;8.10;99.80
9519;DHT22;4797;50.220;8.782;2023-05-24T04:45:26;8.20;99.80
9519;DHT22;4797;50.220;8.782;2023-05-24T04:47:56;8.20;99.80
9519;DHT22;4797;50.220;8.782;2023-05-24T04:50:24;8.30;99.80
9519;DHT22;4797;50.220;8.782;2023-05-24T04:52:53;8.30;99.80
9519;DHT22;4797;50.220;8.782;2023-05-24T04:55:21;8.40;99.80
9519;DHT22;4797;50.220;8.782;2023-05-24T04:57:49;8.40;99.80
9519;DHT22;4797;50.220;8.782;2023-05-24T05:00:18;8.40;99.80
9519;DHT22;4797;50.220;8.782;2023-05-24T05:02:47;8.40;99.80
9519;DHT22;4797;50.220;8.782;2023-05-24T05:05:15;8.40;99.80
9519;DHT22;4797;50.220;8.782;2023-05-24T05:07:43;8.50;99.80
9519;DHT22;4797;50.220;8.782;2023-05-24T05:10:12;8.50;99.80
9519;DHT22;4797;50.220;8.782;2023-05-24T05:12:40;8.50;99.80
9519;DHT22;4797;50.220;8.782;2023-05-24T05:15:09;8.50;99.80
9519;DHT22;4797;50.220;8.782;2023-05-24T05:17:38;8.50;99.80
9519;DHT22;4797;50.220;8.782;2023-05-24T05:20:07;8.50;99.80
9519;DHT22;4797;50.220;8.782;2023-05-24T05:22:35;8.50;99.80
9519;DHT22;4797;50.220;8.782;2023-05-24T05:25:03;8.50;99.80
9519;DHT22;4797;50.220;8.782;2023-05-24T05:27:33;8.50;99.80
9519;DHT22;4797;50.220;8.782;2023-05-24T05:30:01;8.60;99.80
9519;DHT22;4797;50.220;8.782;2023-05-24T05:32:31;8.60;99.80
9519;DHT22;4797;50.220;8.782;2023-05-24T05:34:59;8.70;99.80
9519;DHT22;4797;50.220;8.782;2023-05-24T05:37:27;8.90;99.80
9519;DHT22;4797;50.220;8.782;2023-05-24T05:39:55;8.90;99.80
9519;DHT22;4797;50.220;8.782;2023-05-24T05:42:23;9.00;99.80
9519;DHT22;4797;50.220;8.782;2023-05-24T05:44:53;9.10;99.80
9519;DHT22;4797;50.220;8.782;2023-05-24T05:47:21;9.30;99.80
9519;DHT22;4797;50.220;8.782;2023-05-24T05:49:52;9.30;99.80
9519;DHT22;4797;50.220;8.782;2023-05-24T05:52:21;9.30;99.80
9519;DHT22;4797;50.220;8.782;2023-05-24T05:54:49;9.30;99.80
9519;DHT22;4797;50.220;8.782;2023-05-24T05:57:17;9.40;99.80
9519;DHT22;4797;50.220;8.782;2023-05-24T05:59:50;9.40;99.80
9519;DHT22;4797;50.220;8.782;2023-05-24T06:02:19;9.50;99.80
9519;DHT22;4797;50.220;8.782;2023-05-24T06:04:49;9.50;99.80
9519;DHT22;4797;50.220;8.782;2023-05-24T06:07:17;9.60;99.80
9519;DHT22;4797;50.220;8.782;2023-05-24T06:09:47;9.60;99.80
9519;DHT22;4797;50.220;8.782;2023-05-24T06:12:16;9.70;99.80
9519;DHT22;4797;50.220;8.782;2023-05-24T06:14:45;9.70;99.80
9519;DHT22;4797;50.220;8.782;2023-05-24T06:17:21;9.80;99.80
9519;DHT22;4797;50.220;8.782;2023-05-24T06:19:50;9.80;99.80
9519;DHT22;4797;50.220;8.782;2023-05-24T06:22:22;9.90;99.80
9519;DHT22;4797;50.220;8.782;2023-05-24T06:24:54;10.00;99.80
9519;DHT22;4797;50.220;8.782;2023-05-24T06:27:22;10.20;99.80
9519;DHT22;4797;50.220;8.782;2023-05-24T06:29:53;10.30;99.80
9519;DHT22;4797;50.220;8.782;2023-05-24T06:32:23;10.30;99.80
9519;DHT22;4797;50.220;8.782;2023-05-24T06:34:52;10.40;99.80
9519;DHT22;4797;50.220;8.782;2023-05-24T06:37:23;10.40;99.80
9519;DHT22;4797;50.220;8.782;2023-05-24T06:39:54;10.50;99.80
9519;DHT22;4797;50.220;8.782;2023-05-24T06:42:22;10.60;99.80
9519;DHT22;4797;50.220;8.782;2023-05-24T06:44:50;10.70;99.80
9519;DHT22;4797;50.220;8.782;2023-05-24T06:47:19;10.90;99.80
9519;DHT22;4797;50.220;8.782;2023-05-24T06:49:49;11.20;99.80
9519;DHT22;4797;50.220;8.782;2023-05-24T06:52:17;11.30;99.80
9519;DHT22;4797;50.220;8.782;2023-05-24T06:54:46;11.30;99.80
9519;DHT22;4797;50.220;8.782;2023-05-24T06:57:14;11.30;99.80
9519;DHT22;4797;50.220;8.782;2023-05-24T06:59:42;11.40;99.80
9519;DHT22;4797;50.220;8.782;2023-05-24T07:02:10;11.60;99.80
9519;DHT22;4797;50.220;8.782;2023-05-24T07:04:38;12.00;99.80
9519;DHT22;4797;50.220;8.782;2023-05-24T07:07:09;12.00;99.80
9519;DHT22;4797;50.220;8.782;2023-05-24T07:09:39;11.90;99.80
9519;DHT22;4797;50.220;8.782;2023-05-24T07:12:08;11.80;99.80
9519;DHT22;4797;50.220;8.782;2023-05-24T07:14:36;11.90;99.80
9519;DHT22;4797;50.220;8.782;2023-05-24T07:17:04;12.00;99.80
9519;DHT22;4797;50.220;8.782;2023-05-24T07:19:32;12.00;99.80
9519;DHT22;4797;50.220;8.782;2023-05-24T07:22:01;12.10;99.80
9519;DHT22;4797;50.220;8.782;2023-05-24T09:14:43;14.20;98.00
9519;DHT22;4797;50.220;8.782;2023-05-24T09:17:12;14.40;97.90
9519;DHT22;4797;50.220;8.782;2023-05-24T09:19:44;14.40;98.80
9519;DHT22;4797;50.220;8.782;2023-05-24T09:22:13;14.40;97.80
9519;DHT22;4797;50.220;8.782;2023-05-24T09:24:41;14.10;97.50
9519;DHT22;4797;50.220;8.782;2023-05-24T09:27:09;13.80;99.40
9519;DHT22;4797;50.220;8.782;2023-05-24T09:29:38;14.00;98.60
9519;DHT22;4797;50.220;8.782;2023-05-24T09:32:08;14.20;98.50
9519;DHT22;4797;50.220;8.782;2023-05-24T09:34:37;14.60;98.80
9519;DHT22;4797;50.220;8.782;2023-05-24T09:37:09;14.80;96.90
9519;DHT22;4797;50.220;8.782;2023-05-24T09:39:39;14.80;94.80
9519;DHT22;4797;50.220;8.782;2023-05-24T09:42:13;15.20;97.20
9519;DHT22;4797;50.220;8.782;2023-05-24T09:44:42;15.60;96.90
9519;DHT22;4797;50.220;8.782;2023-05-24T09:47:11;16.00;92.60
9519;DHT22;4797;50.220;8.782;2023-05-24T09:49:40;16.30;94.10
9519;DHT22;4797;50.220;8.782;2023-05-24T09:52:15;16.50;91.50
9519;DHT22;4797;50.220;8.782;2023-05-24T09:54:44;16.70;90.80
9519;DHT22;4797;50.220;8.782;2023-05-24T09:57:15;16.60;90.60
9519;DHT22;4797;50.220;8.782;2023-05-24T09:59:43;16.40;91.60
9519;DHT22;4797;50.220;8.782;2023-05-24T10:02:14;16.20;91.80
9519;DHT22;4797;50.220;8.782;2023-05-24T10:04:44;15.80;91.70
9519;DHT22;4797;50.220;8.782;2023-05-24T10:07:12;15.20;92.80
9519;DHT22;4797;50.220;8.782;2023-05-24T10:09:41;14.80;93.70
9519;DHT22;4797;50.220;8.782;2023-05-24T10:12:11;14.70;94.20
9519;DHT22;4797;50.220;8.782;2023-05-24T10:14:39;14.70;94.00
9519;DHT22;4797;50.220;8.782;2023-05-24T10:17:08;14.90;95.30
9519;DHT22;4797;50.220;8.782;2023-05-24T10:19:37;15.00;93.40
9519;DHT22;4797;50.220;8.782;2023-05-24T10:22:07;15.30;93.70
9519;DHT22;4797;50.220;8.782;2023-05-24T10:24:43;15.50;92.20
9519;DHT22;4797;50.220;8.782;2023-05-24T10:27:15;15.30;92.00
9519;DHT22;4797;50.220;8.782;2023-05-24T10:29:52;15.40;92.50
9519;DHT22;4797;50.220;8.782;2023-05-24T10:32:25;15.60;92.80
9519;DHT22;4797;50.220;8.782;2023-05-24T10:34:59;15.80;92.30
9519;DHT22;4797;50.220;8.782;2023-05-24T10:37:27;16.10;90.50
9519;DHT22;4797;50.220;8.782;2023-05-24T10:39:57;16.10;88.90
9519;DHT22;4797;50.220;8.782;2023-05-24T10:42:34;16.40;90.40
9519;DHT22;4797;50.220;8.782;2023-05-24T10:45:28;16.90;89.10
9519;DHT22;4797;50.220;8.782;2023-05-24T10:51:37;17.50;86.50
9519;DHT22;4797;50.220;8.782;2023-05-24T10:54:16;17.30;86.60
9519;DHT22;4797;50.220;8.782;2023-05-24T10:56:50;17.00;87.20
9519;DHT22;4797;50.220;8.782;2023-05-24T10:59:52;16.90;87.80
9519;DHT22;4797;50.220;8.782;2023-05-24T11:02:30;17.10;87.10
9519;DHT22;4797;50.220;8.782;2023-05-24T11:05:04;16.90;86.80
9519;DHT22;4797;50.220;8.782;2023-05-24T11:07:40;16.60;86.00
9519;DHT22;4797;50.220;8.782;2023-05-24T11:10:10;16.90;85.60
9519;DHT22;4797;50.220;8.782;2023-05-24T11:12:41;17.10;86.00
9519;DHT22;4797;50.220;8.782;2023-05-24T11:15:10;17.40;86.10
9519;DHT22;4797;50.220;8.782;2023-05-24T11:18:12;17.70;88.40
9519;DHT22;4797;50.220;8.782;2023-05-24T11:20:41;18.20;85.30
9519;DHT22;4797;50.220;8.782;2023-05-24T11:23:13;18.50;82.00
9519;DHT22;4797;50.220;8.782;2023-05-24T11:25:42;18.50;83.50
9519;DHT22;4797;50.220;8.782;2023-05-24T11:28:12;19.10;83.70
9519;DHT22;4797;50.220;8.782;2023-05-24T11:30:41;19.40;83.70
9519;DHT22;4797;50.220;8.782;2023-05-24T11:33:16;19.60;84.00
9519;DHT22;4797;50.220;8.782;2023-05-24T11:35:45;19.80;82.20
9519;DHT22;4797;50.220;8.782;2023-05-24T11:38:16;19.60;79.50
9519;DHT22;4797;50.220;8.782;2023-05-24T11:40:45;19.20;80.70
9519;DHT22;4797;50.220;8.782;2023-05-24T11:43:15;19.00;80.50
9519;DHT22;4797;50.220;8.782;2023-05-24T11:45:45;18.70;80.30
9519;DHT22;4797;50.220;8.782;2023-05-24T11:48:14;19.00;81.50
9519;DHT22;4797;50.220;8.782;2023-05-24T11:50:45;19.20;80.70
9519;DHT22;4797;50.220;8.782;2023-05-24T11:53:18;19.70;78.10
9519;DHT22;4797;50.220;8.782;2023-05-24T11:58:21;21.40;76.00
9519;DHT22;4797;50.220;8.782;2023-05-24T12:00:50;21.40;75.80
9519;DHT22;4797;50.220;8.782;2023-05-24T12:03:18;21.10;76.20
9519;DHT22;4797;50.220;8.782;2023-05-24T12:08:17;22.30;75.80
9519;DHT22;4797;50.220;8.782;2023-05-24T12:10:47;22.00;74.20
9519;DHT22;4797;50.220;8.782;2023-05-24T12:13:20;22.00;74.80
9519;DHT22;4797;50.220;8.782;2023-05-24T12:15:50;21.50;73.50
9519;DHT22;4797;50.220;8.782;2023-05-24T12:18:23;20.80;74.60
9519;DHT22;4797;50.220;8.782;2023-05-24T12:20:52;21.40;73.80
9519;DHT22;4797;50.220;8.782;2023-05-24T12:23:23;22.30;71.30
